createdAt,value
2023-01-30T00:01:05.555Z,33.85
2023-01-30T00:03:34.266Z,32.25
2023-01-30T00:06:01.839Z,35.13
2023-01-30T00:08:29.562Z,34.35
2023-01-30T00:10:57.067Z,35.42
2023-01-30T00:13:24.555Z,33.33
2023-01-30T00:15:52.083Z,30.13
2023-01-30T00:18:19.576Z,33.42
2023-01-30T00:20:47.039Z,30.73
2023-01-30T00:23:14.520Z,32.17
2023-01-30T00:25:46.225Z,33.10
2023-01-30T00:28:13.897Z,30.27
2023-01-30T00:30:42.363Z,30.67
2023-01-30T00:33:10.738Z,30.33
2023-01-30T00:35:38.287Z,32.25
2023-01-30T00:38:05.823Z,31.20
2023-01-30T00:40:33.438Z,29.98
2023-01-30T00:43:19.582Z,30.85
2023-01-30T00:46:08.281Z,31.52
2023-01-30T00:48:35.864Z,30.40
2023-01-30T00:51:03.595Z,29.95
2023-01-30T00:53:31.147Z,31.95
2023-01-30T00:55:58.696Z,31.45
2023-01-30T00:58:26.737Z,28.15
2023-01-30T01:00:56.185Z,31.33
2023-01-30T01:03:24.257Z,28.92
2023-01-30T01:05:51.927Z,30.30
2023-01-30T01:08:20.172Z,30.20
2023-01-30T01:10:48.044Z,31.55
2023-01-30T01:13:15.497Z,29.58
2023-01-30T01:15:43.212Z,30.63
2023-01-30T01:18:10.700Z,31.45
2023-01-30T01:20:38.191Z,31.98
2023-01-30T01:23:05.849Z,32.58
2023-01-30T01:25:33.306Z,29.55
2023-01-30T01:28:01.075Z,29.58
2023-01-30T01:30:28.600Z,31.13
2023-01-30T01:32:57.524Z,32.50
2023-01-30T01:35:25.259Z,32.20
2023-01-30T01:37:56.259Z,33.17
2023-01-30T01:40:42.937Z,30.45
2023-01-30T01:43:25.770Z,31.90
2023-01-30T01:46:00.746Z,30.60
2023-01-30T01:48:36.684Z,30.15
2023-01-30T01:51:15.554Z,30.38
2023-01-30T01:53:57.217Z,28.25
2023-01-30T01:56:25.876Z,28.17
2023-01-30T01:59:24.479Z,31.40
2023-01-30T02:01:58.253Z,28.73
2023-01-30T02:04:48.268Z,29.45
2023-01-30T02:07:21.367Z,30.15
2023-01-30T02:09:51.696Z,30.27
2023-01-30T02:12:21.082Z,30.10
2023-01-30T02:14:50.732Z,28.88
2023-01-30T02:17:18.218Z,29.05
2023-01-30T02:20:06.760Z,27.83
2023-01-30T02:23:44.331Z,29.83
2023-01-30T02:27:01.141Z,28.38
2023-01-30T02:30:05.947Z,29.63
2023-01-30T02:33:07.314Z,30.67
2023-01-30T02:35:55.812Z,29.75
2023-01-30T02:38:46.753Z,29.30
2023-01-30T02:41:36.459Z,28.92
2023-01-30T02:44:25.136Z,29.25
2023-01-30T02:47:06.113Z,30.35
2023-01-30T02:49:54.875Z,29.67
2023-01-30T02:52:23.443Z,28.33
2023-01-30T02:54:51.123Z,31.30
2023-01-30T02:57:22.832Z,30.08
2023-01-30T03:00:04.919Z,31.65
2023-01-30T03:02:38.724Z,30.80
2023-01-30T03:05:22.771Z,30.80
2023-01-30T03:08:12.264Z,30.33
2023-01-30T03:10:54.659Z,30.48
2023-01-30T03:13:52.370Z,31.70
2023-01-30T03:16:37.606Z,32.75
2023-01-30T03:19:12.168Z,31.73
2023-01-30T03:21:44.952Z,32.17
2023-01-30T03:24:14.622Z,33.60
2023-01-30T03:26:54.665Z,30.58
2023-01-30T03:29:22.692Z,31.45
2023-01-30T03:31:51.334Z,32.28
2023-01-30T03:34:19.734Z,34.22
2023-01-30T03:36:48.811Z,33.33
2023-01-30T03:39:17.004Z,31.02
2023-01-30T03:41:45.219Z,32.30
2023-01-30T03:44:12.779Z,32.97
2023-01-30T03:46:42.704Z,33.97
2023-01-30T03:49:10.255Z,33.83
2023-01-30T03:51:38.287Z,32.25
2023-01-30T03:54:05.815Z,34.03
2023-01-30T03:56:34.390Z,34.97
2023-01-30T03:59:02.108Z,33.83
2023-01-30T04:01:38.050Z,33.65
2023-01-30T04:04:06.049Z,35.88
2023-01-30T04:06:35.753Z,35.85
2023-01-30T04:09:05.803Z,33.22
2023-01-30T04:11:39.107Z,34.97
2023-01-30T04:14:06.759Z,32.22
2023-01-30T04:16:41.242Z,31.95
2023-01-30T04:19:27.353Z,33.65
2023-01-30T04:21:55.453Z,32.90
2023-01-30T04:24:24.118Z,31.27
2023-01-30T04:26:51.617Z,30.05
2023-01-30T04:29:19.596Z,30.38
2023-01-30T04:31:49.978Z,28.50
2023-01-30T04:34:23.806Z,26.90
2023-01-30T04:36:51.452Z,24.05
2023-01-30T04:39:21.176Z,26.48
2023-01-30T04:41:49.426Z,23.55
2023-01-30T04:44:17.091Z,22.33
2023-01-30T04:46:51.908Z,20.88
2023-01-30T04:49:21.275Z,22.60
2023-01-30T04:51:50.011Z,18.90
2023-01-30T04:54:17.671Z,16.70
2023-01-30T04:56:45.156Z,17.48
2023-01-30T04:59:12.789Z,15.60
2023-01-30T05:01:44.432Z,13.80
2023-01-30T05:04:13.019Z,15.23
2023-01-30T05:06:40.785Z,14.18
2023-01-30T05:09:08.463Z,13.75
2023-01-30T05:11:36.110Z,13.43
2023-01-30T05:14:03.756Z,13.45
2023-01-30T05:16:31.394Z,11.85
2023-01-30T05:18:58.846Z,12.10
2023-01-30T05:21:28.656Z,12.52
2023-01-30T05:23:57.583Z,12.68
2023-01-30T05:26:25.602Z,11.30
2023-01-30T05:28:56.099Z,12.10
2023-01-30T05:31:24.063Z,11.35
2023-01-30T05:33:53.177Z,10.80
2023-01-30T05:36:23.359Z,10.52
2023-01-30T05:38:51.147Z,10.85
2023-01-30T05:41:19.912Z,10.65
2023-01-30T05:43:50.997Z,10.52
2023-01-30T05:46:19.403Z,9.88
2023-01-30T05:48:47.079Z,9.95
2023-01-30T05:51:22.384Z,9.27
2023-01-30T05:53:50.391Z,8.25
2023-01-30T05:56:19.832Z,8.35
2023-01-30T05:58:55.798Z,8.27
2023-01-30T06:01:24.479Z,6.95
2023-01-30T06:03:52.599Z,6.78
2023-01-30T06:06:20.977Z,6.80
2023-01-30T06:08:53.867Z,6.53
2023-01-30T06:11:22.706Z,6.47
2023-01-30T06:13:50.459Z,6.50
2023-01-30T06:16:19.315Z,5.78
2023-01-30T06:18:47.530Z,4.88
2023-01-30T06:21:16.319Z,5.63
2023-01-30T06:23:44.632Z,5.53
2023-01-30T06:26:12.198Z,5.30
2023-01-30T06:28:39.718Z,4.75
2023-01-30T06:31:09.000Z,4.68
2023-01-30T06:33:37.078Z,4.45
2023-01-30T06:36:05.034Z,4.35
2023-01-30T06:38:32.478Z,4.10
2023-01-30T06:40:59.900Z,4.45
2023-01-30T06:43:27.502Z,3.88
2023-01-30T06:45:55.085Z,4.15
2023-01-30T06:48:22.641Z,4.03
2023-01-30T06:50:50.087Z,4.30
2023-01-30T06:53:17.566Z,4.50
2023-01-30T06:55:47.683Z,4.13
2023-01-30T06:58:15.624Z,3.40
2023-01-30T07:00:43.739Z,3.28
2023-01-30T07:03:14.858Z,3.60
2023-01-30T07:05:44.914Z,3.55
2023-01-30T07:08:13.768Z,3.53
2023-01-30T07:10:42.696Z,3.30
2023-01-30T07:13:10.420Z,3.05
2023-01-30T07:15:38.559Z,3.28
2023-01-30T07:18:06.154Z,3.58
2023-01-30T07:20:33.955Z,3.00
2023-01-30T07:23:01.779Z,3.35
2023-01-30T07:25:30.609Z,3.00
2023-01-30T07:28:01.067Z,3.17
2023-01-30T07:30:36.084Z,3.45
2023-01-30T07:33:06.567Z,3.25
2023-01-30T07:35:37.458Z,3.60
2023-01-30T07:38:06.043Z,3.90
2023-01-30T07:40:33.797Z,3.28
2023-01-30T07:43:06.162Z,3.25
2023-01-30T07:45:42.453Z,3.58
2023-01-30T07:48:17.910Z,3.30
2023-01-30T07:50:45.966Z,4.18
2023-01-30T07:53:16.797Z,3.85
2023-01-30T07:55:45.795Z,3.65
2023-01-30T07:58:15.896Z,3.50
2023-01-30T08:00:44.426Z,3.58
2023-01-30T08:03:14.530Z,3.47
2023-01-30T08:05:42.433Z,3.80
2023-01-30T08:08:09.988Z,3.58
2023-01-30T08:10:37.423Z,4.03
2023-01-30T08:13:04.977Z,3.47
2023-01-30T08:15:33.489Z,4.32
2023-01-30T08:18:01.230Z,4.32
2023-01-30T08:20:29.047Z,3.65
2023-01-30T08:22:59.007Z,3.25
2023-01-30T08:25:26.424Z,3.90
2023-01-30T08:27:54.358Z,3.38
2023-01-30T08:30:23.540Z,4.38
2023-01-30T08:32:51.264Z,4.03
2023-01-30T08:35:18.807Z,3.83
2023-01-30T08:37:46.316Z,4.05
2023-01-30T08:40:14.695Z,5.68
2023-01-30T08:42:45.516Z,4.35
2023-01-30T08:45:13.631Z,4.77
2023-01-30T08:47:41.091Z,4.00
2023-01-30T08:50:09.551Z,4.78
2023-01-30T08:52:37.005Z,4.55
2023-01-30T08:55:04.955Z,4.82
2023-01-30T08:57:33.445Z,4.10
2023-01-30T09:00:00.952Z,5.03
2023-01-30T09:02:28.551Z,4.00
2023-01-30T09:04:55.999Z,3.33
2023-01-30T09:07:23.503Z,3.83
2023-01-30T09:09:51.006Z,4.32
2023-01-30T09:12:18.462Z,4.07
2023-01-30T09:14:45.901Z,4.13
2023-01-30T09:17:13.918Z,4.65
2023-01-30T09:19:41.421Z,4.05
2023-01-30T09:22:08.936Z,4.00
2023-01-30T09:24:36.426Z,3.35
2023-01-30T09:27:04.078Z,3.85
2023-01-30T09:29:31.624Z,4.15
2023-01-30T09:31:59.139Z,4.43
2023-01-30T09:34:28.818Z,3.50
2023-01-30T09:37:03.741Z,4.25
2023-01-30T09:39:32.131Z,4.20
2023-01-30T09:42:20.823Z,3.20
2023-01-30T09:44:58.822Z,3.13
2023-01-30T09:47:39.454Z,3.75
2023-01-30T09:50:39.393Z,4.10
2023-01-30T09:53:38.155Z,3.42
2023-01-30T09:56:08.716Z,3.45
2023-01-30T09:58:48.436Z,3.53
2023-01-30T10:01:29.244Z,4.25
2023-01-30T10:04:16.385Z,3.77
2023-01-30T10:07:10.728Z,3.33
2023-01-30T10:10:24.256Z,3.70
2023-01-30T10:13:49.194Z,3.17
2023-01-30T10:16:28.165Z,3.20
2023-01-30T10:19:35.549Z,3.83
2023-01-30T10:22:15.632Z,3.70
2023-01-30T10:25:25.461Z,3.95
2023-01-30T10:28:03.888Z,3.90
2023-01-30T10:30:33.786Z,3.15
2023-01-30T10:33:14.054Z,3.72
2023-01-30T10:35:43.905Z,4.00
2023-01-30T10:38:29.801Z,3.38
2023-01-30T10:41:08.914Z,2.55
2023-01-30T10:43:44.191Z,2.95
2023-01-30T10:46:46.710Z,2.95
2023-01-30T10:49:41.815Z,3.15
2023-01-30T10:53:00.492Z,3.65
2023-01-30T10:56:01.804Z,3.50
2023-01-30T10:59:03.536Z,2.93
2023-01-30T11:01:53.841Z,3.83
2023-01-30T11:04:32.270Z,3.67
2023-01-30T11:07:02.424Z,3.67
2023-01-30T11:09:49.206Z,3.35
2023-01-30T11:12:16.705Z,3.20
2023-01-30T11:15:01.037Z,3.60
2023-01-30T11:17:48.782Z,3.25
2023-01-30T11:20:24.328Z,3.55
2023-01-30T11:23:06.760Z,3.25
2023-01-30T11:26:09.209Z,3.97
2023-01-30T11:28:43.960Z,3.67
2023-01-30T11:31:40.430Z,3.40
2023-01-30T11:34:20.986Z,4.25
2023-01-30T11:36:49.595Z,3.85
2023-01-30T11:39:20.550Z,4.45
2023-01-30T11:41:54.032Z,3.47
2023-01-30T11:44:35.433Z,3.70
2023-01-30T11:47:10.234Z,3.72
2023-01-30T11:50:24.942Z,4.18
2023-01-30T11:52:38.669Z,3.55
2023-01-30T11:55:20.226Z,3.42
2023-01-30T11:57:58.556Z,4.50
2023-01-30T12:00:55.395Z,4.20
2023-01-30T12:03:25.776Z,4.10
2023-01-30T12:05:55.383Z,3.95
2023-01-30T12:08:41.914Z,4.78
2023-01-30T12:11:32.372Z,4.72
2023-01-30T12:14:36.766Z,3.83
2023-01-30T12:17:26.321Z,4.32
2023-01-30T12:20:41.453Z,3.80
2023-01-30T12:23:17.179Z,4.22
2023-01-30T12:26:13.279Z,3.95
2023-01-30T12:29:15.734Z,3.97
2023-01-30T12:31:51.009Z,4.10
2023-01-30T12:34:18.868Z,3.97
2023-01-30T12:37:37.761Z,3.83
2023-01-30T12:40:36.665Z,4.10
2023-01-30T12:43:29.852Z,4.40
2023-01-30T12:46:19.805Z,3.97
2023-01-30T12:49:31.109Z,4.25
2023-01-30T12:52:27.476Z,4.17
2023-01-30T12:55:38.693Z,4.05
2023-01-30T12:58:57.659Z,4.63
2023-01-30T13:01:53.318Z,4.60
2023-01-30T13:04:51.183Z,4.47
2023-01-30T13:08:10.880Z,3.88
2023-01-30T13:10:54.786Z,4.13
2023-01-30T13:13:46.858Z,4.75
2023-01-30T13:16:52.219Z,4.28
2023-01-30T13:19:41.614Z,3.90
2023-01-30T13:22:27.533Z,3.95
2023-01-30T13:25:16.912Z,4.63
2023-01-30T13:27:55.240Z,3.72
2023-01-30T13:30:25.511Z,4.07
2023-01-30T13:33:00.789Z,3.88
2023-01-30T13:35:54.372Z,4.30
2023-01-30T13:38:30.612Z,4.20
2023-01-30T13:41:00.560Z,4.10
2023-01-30T13:43:49.024Z,3.83
2023-01-30T13:46:28.566Z,3.72
2023-01-30T13:49:20.741Z,4.72
2023-01-30T13:51:58.695Z,4.10
2023-01-30T13:55:18.160Z,3.72
2023-01-30T13:58:01.573Z,3.63
2023-01-30T14:00:32.085Z,3.78
2023-01-30T14:03:05.709Z,4.13
2023-01-30T14:05:51.942Z,4.13
2023-01-30T14:08:25.377Z,3.95
2023-01-30T14:10:56.213Z,4.30
2023-01-30T14:13:26.315Z,3.90
2023-01-30T14:16:04.610Z,3.63
2023-01-30T14:18:38.816Z,3.92
2023-01-30T14:21:16.989Z,5.00
2023-01-30T14:24:03.103Z,5.03
2023-01-30T14:26:50.204Z,4.13
2023-01-30T14:29:42.515Z,4.53
2023-01-30T14:32:14.049Z,4.32
2023-01-30T14:37:34.733Z,4.30
2023-01-30T14:40:23.685Z,4.47
2023-01-30T14:43:13.263Z,4.30
2023-01-30T14:45:52.818Z,4.45
2023-01-30T14:48:44.653Z,3.80
2023-01-30T14:51:40.553Z,4.60
2023-01-30T14:54:14.562Z,4.05
2023-01-30T14:56:56.296Z,4.05
2023-01-30T15:02:59.242Z,4.70
2023-01-30T15:05:40.272Z,5.03
2023-01-30T15:08:29.083Z,4.63
2023-01-30T15:11:23.282Z,4.70
2023-01-30T15:14:08.528Z,4.78
2023-01-30T15:17:10.927Z,5.32
2023-01-30T15:20:20.847Z,4.78
2023-01-30T15:23:32.012Z,4.82
2023-01-30T15:26:18.281Z,4.32
2023-01-30T15:29:07.469Z,4.70
2023-01-30T15:31:35.048Z,4.22
2023-01-30T15:34:20.410Z,5.18
2023-01-30T15:36:47.937Z,4.95
2023-01-30T15:39:26.007Z,4.90
2023-01-30T15:42:06.944Z,4.80
2023-01-30T15:44:59.405Z,4.38
2023-01-30T15:48:35.242Z,4.25
2023-01-30T15:51:16.999Z,5.07
2023-01-30T15:53:47.836Z,4.00
2023-01-30T15:56:29.564Z,4.70
2023-01-30T15:59:01.601Z,4.38
2023-01-30T16:01:30.041Z,4.15
2023-01-30T16:04:00.245Z,5.55
2023-01-30T16:06:37.729Z,5.43
2023-01-30T16:09:26.358Z,5.72
2023-01-30T16:11:53.916Z,3.90
2023-01-30T16:14:22.751Z,3.95
2023-01-30T16:17:06.853Z,4.45
2023-01-30T16:19:38.995Z,4.53
2023-01-30T16:22:18.054Z,4.70
2023-01-30T16:24:52.279Z,4.93
2023-01-30T16:27:30.943Z,5.05
2023-01-30T16:30:09.074Z,4.75
2023-01-30T16:32:37.409Z,4.60
2023-01-30T16:35:28.173Z,4.95
2023-01-30T16:37:58.859Z,4.90
2023-01-30T16:40:44.155Z,5.05
2023-01-30T16:43:21.881Z,5.07
2023-01-30T16:45:53.113Z,4.28
2023-01-30T16:48:22.716Z,5.28
2023-01-30T16:51:00.194Z,5.22
2023-01-30T16:53:32.395Z,5.53
2023-01-30T16:56:10.769Z,4.93
2023-01-30T16:58:38.865Z,5.25
2023-01-30T17:01:08.844Z,4.40
2023-01-30T17:03:43.788Z,4.97
2023-01-30T17:06:30.115Z,4.72
2023-01-30T17:08:59.815Z,5.28
2023-01-30T17:11:41.845Z,4.60
2023-01-30T17:14:26.470Z,5.03
2023-01-30T17:17:09.453Z,4.95
2023-01-30T17:19:37.804Z,4.65
2023-01-30T17:22:14.532Z,4.78
2023-01-30T17:24:42.006Z,4.43
2023-01-30T17:27:09.826Z,4.68
2023-01-30T17:29:44.982Z,4.78
2023-01-30T17:32:15.830Z,4.00
2023-01-30T17:34:43.314Z,5.07
2023-01-30T17:37:22.393Z,3.90
2023-01-30T17:39:49.900Z,3.67
2023-01-30T17:42:22.161Z,3.85
2023-01-30T17:44:49.930Z,3.33
2023-01-30T17:47:17.352Z,2.88
2023-01-30T17:49:44.828Z,3.85
2023-01-30T17:52:13.604Z,4.18
2023-01-30T17:54:41.142Z,4.47
2023-01-30T17:57:15.628Z,4.63
2023-01-30T17:59:43.772Z,5.10
2023-01-30T18:02:11.229Z,4.65
2023-01-30T18:04:41.989Z,5.32
2023-01-30T18:07:16.431Z,5.13
2023-01-30T18:09:43.930Z,4.40
2023-01-30T18:12:11.368Z,4.25
2023-01-30T18:14:38.791Z,5.22
2023-01-30T18:17:06.347Z,4.40
2023-01-30T18:19:33.873Z,4.10
2023-01-30T18:22:01.415Z,4.32
2023-01-30T18:24:29.044Z,4.43
2023-01-30T18:26:56.611Z,4.40
2023-01-30T18:29:26.294Z,3.97
2023-01-30T18:31:53.892Z,4.05
2023-01-30T18:34:21.378Z,4.53
2023-01-30T18:36:48.855Z,3.78
2023-01-30T18:39:16.311Z,3.60
2023-01-30T18:41:43.790Z,3.55
2023-01-30T18:44:11.287Z,3.70
2023-01-30T18:46:39.110Z,3.88
2023-01-30T18:49:08.242Z,4.03
2023-01-30T18:51:35.683Z,3.72
2023-01-30T18:54:03.361Z,3.95
2023-01-30T18:56:33.617Z,3.83
2023-01-30T18:59:04.188Z,3.53
2023-01-30T19:01:37.464Z,4.50
2023-01-30T19:04:09.476Z,3.40
2023-01-30T19:06:43.103Z,4.03
2023-01-30T19:09:17.237Z,4.20
2023-01-30T19:12:03.177Z,4.68
2023-01-30T19:14:30.838Z,4.93
2023-01-30T19:16:58.366Z,6.07
2023-01-30T19:19:25.978Z,3.50
2023-01-30T19:21:53.591Z,3.90
2023-01-30T19:24:21.365Z,4.20
2023-01-30T19:26:52.218Z,4.18
2023-01-30T19:29:20.012Z,3.50
2023-01-30T19:31:47.628Z,4.50
2023-01-30T19:34:15.201Z,4.55
2023-01-30T19:36:42.727Z,3.67
2023-01-30T19:39:10.585Z,3.58
2023-01-30T19:41:38.667Z,3.55
2023-01-30T19:44:09.046Z,4.10
2023-01-30T19:46:36.906Z,4.90
2023-01-30T19:49:05.758Z,4.00
2023-01-30T19:51:35.096Z,5.30
2023-01-30T19:54:06.273Z,3.92
2023-01-30T19:56:34.299Z,5.05
2023-01-30T19:59:02.547Z,5.20
2023-01-30T20:01:35.647Z,5.53
2023-01-30T20:04:05.224Z,5.53
2023-01-30T20:06:35.601Z,4.68
2023-01-30T20:09:19.724Z,4.70
2023-01-30T20:11:49.857Z,5.80
2023-01-30T20:14:33.374Z,5.75
2023-01-30T20:17:18.902Z,6.05
2023-01-30T20:19:46.778Z,6.43
2023-01-30T20:22:14.217Z,5.32
2023-01-30T20:24:44.271Z,5.60
2023-01-30T20:27:11.739Z,5.75
2023-01-30T20:29:46.476Z,6.22
2023-01-30T20:32:14.084Z,5.85
2023-01-30T20:34:41.464Z,6.07
2023-01-30T20:37:08.959Z,5.65
2023-01-30T20:39:38.781Z,5.13
2023-01-30T20:42:06.365Z,5.95
2023-01-30T20:44:35.540Z,5.25
2023-01-30T20:47:03.610Z,4.80
2023-01-30T20:49:31.075Z,5.50
2023-01-30T20:51:58.490Z,4.82
2023-01-30T20:54:25.907Z,5.50
2023-01-30T20:56:54.270Z,4.45
2023-01-30T20:59:24.608Z,5.07
2023-01-30T21:01:53.473Z,5.30
2023-01-30T21:04:24.919Z,5.20
2023-01-30T21:06:53.070Z,5.32
2023-01-30T21:09:23.362Z,6.43
2023-01-30T21:11:53.275Z,5.53
2023-01-30T21:14:21.478Z,5.20
2023-01-30T21:16:49.189Z,5.45
2023-01-30T21:19:17.839Z,5.47
2023-01-30T21:21:55.406Z,6.05
2023-01-30T21:24:29.570Z,5.40
2023-01-30T21:26:57.107Z,5.97
2023-01-30T21:29:28.552Z,5.35
2023-01-30T21:31:57.737Z,6.47
2023-01-30T21:34:25.681Z,6.03
2023-01-30T21:37:11.636Z,6.32
2023-01-30T21:40:00.312Z,5.75
2023-01-30T21:42:46.151Z,5.28
2023-01-30T21:45:13.704Z,5.38
2023-01-30T21:47:41.285Z,5.03
2023-01-30T21:50:09.778Z,5.43
2023-01-30T21:52:37.918Z,6.13
2023-01-30T21:55:05.768Z,5.43
2023-01-30T21:57:33.213Z,5.38
2023-01-30T22:00:06.629Z,5.60
2023-01-30T22:02:34.159Z,5.78
2023-01-30T22:05:01.596Z,5.55
2023-01-30T22:07:28.984Z,4.78
2023-01-30T22:09:57.116Z,5.07
2023-01-30T22:12:25.155Z,5.50
2023-01-30T22:14:52.622Z,6.18
2023-01-30T22:17:20.564Z,6.05
2023-01-30T22:19:47.971Z,5.50
2023-01-30T22:22:15.478Z,5.10
2023-01-30T22:24:42.863Z,4.53
2023-01-30T22:27:10.420Z,4.97
2023-01-30T22:29:38.516Z,5.10
2023-01-30T22:32:05.983Z,4.97
2023-01-30T22:34:35.868Z,5.28
2023-01-30T22:37:03.749Z,5.13
2023-01-30T22:39:31.311Z,5.72
2023-01-30T22:41:58.753Z,5.10
2023-01-30T22:44:26.312Z,5.00
2023-01-30T22:46:54.372Z,5.40
2023-01-30T22:49:21.856Z,4.82
2023-01-30T22:51:49.256Z,5.15
2023-01-30T22:54:16.848Z,4.70
2023-01-30T22:56:47.696Z,5.28
2023-01-30T22:59:16.075Z,5.90
2023-01-30T23:01:50.609Z,5.55
2023-01-30T23:04:22.227Z,5.03
2023-01-30T23:09:22.906Z,5.32
2023-01-30T23:12:15.641Z,6.05
2023-01-30T23:14:43.523Z,5.68
2023-01-30T23:17:29.495Z,6.13
2023-01-30T23:19:57.240Z,5.68
2023-01-30T23:22:24.732Z,5.88
2023-01-30T23:24:52.317Z,5.57
2023-01-30T23:27:21.407Z,6.60
2023-01-30T23:29:48.877Z,6.97
2023-01-30T23:32:44.470Z,7.18
2023-01-30T23:35:11.938Z,6.40
2023-01-30T23:37:58.150Z,6.28
2023-01-30T23:40:25.555Z,6.10
2023-01-30T23:42:53.054Z,6.15
2023-01-30T23:45:20.798Z,5.75
2023-01-30T23:47:48.436Z,6.15
2023-01-30T23:50:16.248Z,7.07
2023-01-30T23:52:44.355Z,6.05
2023-01-30T23:55:11.876Z,6.15
2023-01-30T23:57:39.780Z,7.22
